Time;durP1;ratioP1;P1;durP2;ratioP2;P2;SDS_P1;SDS_P2;PMS_P1;PMS_P2;Temp;Humidity;BMP_temperature;BMP_pressure;BME280_temperature;BME280_humidity;BME280_pressure;Samples;Min_cycle;Max_cycle;Signal;HPM_P1;HPM_P2
2024/02/10 00:02:03;;;;;;;5.13;4.30;;;12.60;99.90;;;;;;5054580;28;20202;-55
2024/02/10 00:04:31;;;;;;;6.23;4.33;;;12.60;99.90;;;;;;5054729;28;20284;-55
2024/02/10 00:06:59;;;;;;;5.13;4.30;;;12.60;99.90;;;;;;5054838;28;20617;-55
2024/02/10 00:09:25;;;;;;;4.60;3.90;;;12.60;99.90;;;;;;5046114;28;20616;-56
2024/02/10 00:11:52;;;;;;;6.33;4.10;;;12.60;99.90;;;;;;5054627;28;20690;-55
2024/02/10 00:14:20;;;;;;;5.40;4.23;;;12.50;99.90;;;;;;5054793;28;20225;-55
2024/02/10 00:16:47;;;;;;;6.33;3.33;;;12.60;99.90;;;;;;5054850;28;20212;-55
2024/02/10 00:19:14;;;;;;;3.90;3.40;;;12.60;99.90;;;;;;5054048;28;20336;-55
2024/02/10 00:21:45;;;;;;;4.57;3.50;;;12.60;99.90;;;;;;5054669;28;20205;-56
2024/02/10 00:24:12;;;;;;;5.77;4.23;;;12.60;99.90;;;;;;5054294;28;20198;-56
2024/02/10 00:26:39;;;;;;;5.13;4.57;;;12.60;99.90;;;;;;5054648;28;20230;-56
2024/02/10 00:29:12;;;;;;;5.33;4.37;;;12.60;99.90;;;;;;5054127;28;20229;-56
2024/02/10 00:31:42;;;;;;;5.97;4.00;;;12.60;99.90;;;;;;5054325;28;20263;-55
2024/02/10 00:34:08;;;;;;;4.87;4.40;;;12.60;99.90;;;;;;5054396;28;20229;-55
2024/02/10 00:36:35;;;;;;;4.90;4.17;;;12.60;99.90;;;;;;5054135;28;20232;-55
2024/02/10 00:39:04;;;;;;;5.30;4.33;;;12.70;99.90;;;;;;5053866;28;20229;-55
2024/02/10 00:41:30;;;;;;;5.40;4.20;;;12.50;99.90;;;;;;5054264;28;20297;-57
2024/02/10 00:43:57;;;;;;;5.53;4.40;;;12.50;99.90;;;;;;5054196;28;20209;-56
2024/02/10 00:46:24;;;;;;;5.63;4.10;;;12.50;99.90;;;;;;5053886;28;20205;-56
2024/02/10 00:48:53;;;;;;;4.57;3.90;;;12.50;99.90;;;;;;5053364;28;20233;-57
2024/02/10 00:51:20;;;;;;;6.20;4.37;;;12.30;99.90;;;;;;5053613;28;20307;-55
2024/02/10 00:53:47;;;;;;;5.77;4.60;;;12.10;99.90;;;;;;5053675;28;20222;-56
2024/02/10 00:56:15;;;;;;;5.40;4.33;;;11.90;99.90;;;;;;5053893;28;20205;-55
2024/02/10 00:58:44;;;;;;;6.50;4.57;;;11.90;99.90;;;;;;5053307;28;20233;-56
2024/02/10 01:01:12;;;;;;;7.50;5.13;;;12.00;99.90;;;;;;5053452;28;20206;-56
2024/02/10 01:03:43;;;;;;;5.80;5.00;;;12.00;99.90;;;;;;5053390;28;20201;-57
2024/02/10 01:06:11;;;;;;;5.70;5.10;;;12.10;99.90;;;;;;5052922;28;20215;-56
2024/02/10 01:08:40;;;;;;;7.13;5.80;;;12.10;99.90;;;;;;5053079;28;20217;-55
2024/02/10 01:11:11;;;;;;;6.27;5.23;;;12.20;99.90;;;;;;5053588;28;20655;-56
2024/02/10 01:13:42;;;;;;;5.87;5.23;;;12.20;99.90;;;;;;5053452;28;20228;-56
2024/02/10 01:16:09;;;;;;;6.40;5.73;;;12.30;99.90;;;;;;5053219;28;20210;-57
2024/02/10 01:18:37;;;;;;;8.07;6.30;;;12.30;99.90;;;;;;5052916;28;20715;-56
2024/02/10 01:21:05;;;;;;;8.27;6.67;;;12.30;99.90;;;;;;5053257;28;20212;-55
2024/02/10 01:23:32;;;;;;;9.80;6.63;;;12.30;99.90;;;;;;5053170;28;20335;-56
2024/02/10 01:25:59;;;;;;;7.80;6.80;;;12.20;99.90;;;;;;5053224;28;20585;-56
2024/02/10 01:28:25;;;;;;;8.07;6.93;;;12.20;99.90;;;;;;5052516;28;20229;-57
2024/02/10 01:30:53;;;;;;;11.17;6.60;;;12.20;99.90;;;;;;5052835;28;20660;-56
2024/02/10 01:33:20;;;;;;;7.03;6.30;;;12.20;99.90;;;;;;5053087;28;20221;-56
2024/02/10 01:35:46;;;;;;;8.07;6.77;;;12.20;99.90;;;;;;5053139;28;20213;-56
2024/02/10 01:38:13;;;;;;;9.67;7.03;;;12.20;99.90;;;;;;5052619;28;20202;-57
2024/02/10 01:40:41;;;;;;;7.53;6.77;;;12.00;99.90;;;;;;5052827;28;20206;-56
2024/02/10 01:43:07;;;;;;;8.40;6.63;;;11.90;99.90;;;;;;5052576;28;20206;-57
2024/02/10 01:45:35;;;;;;;7.80;7.00;;;12.00;99.90;;;;;;5053127;28;20233;-56
2024/02/10 01:48:08;;;;;;;9.00;6.67;;;12.10;99.90;;;;;;5052832;28;20733;-56
2024/02/10 01:50:35;;;;;;;8.07;6.60;;;12.20;99.90;;;;;;5045776;28;20208;-56
2024/02/10 01:53:02;;;;;;;7.50;6.67;;;12.20;99.90;;;;;;5052386;28;20206;-57
2024/02/10 01:55:30;;;;;;;10.30;7.43;;;12.30;99.90;;;;;;5044282;28;20248;-56
2024/02/10 01:58:01;;;;;;;10.13;7.93;;;12.30;99.90;;;;;;5052476;28;20209;-56
2024/02/10 02:00:27;;;;;;;7.73;6.93;;;12.30;99.90;;;;;;5052315;28;20240;-55
2024/02/10 02:02:59;;;;;;;8.40;7.37;;;12.30;99.90;;;;;;5052475;28;20280;-56
2024/02/10 02:05:27;;;;;;;12.93;7.47;;;12.30;99.90;;;;;;5052305;28;20201;-57
2024/02/10 02:07:55;;;;;;;9.70;6.90;;;12.30;99.90;;;;;;5052535;28;20216;-56
2024/02/10 02:10:22;;;;;;;10.57;7.80;;;12.30;99.90;;;;;;5051581;28;20237;-56
2024/02/10 02:12:50;;;;;;;9.53;7.33;;;12.20;99.90;;;;;;5052279;28;20293;-57
2024/02/10 02:15:16;;;;;;;10.63;7.17;;;12.20;99.90;;;;;;5051980;28;20255;-56
2024/02/10 02:17:43;;;;;;;9.70;7.87;;;12.20;99.90;;;;;;5052315;28;20206;-55
2024/02/10 02:20:11;;;;;;;11.93;8.50;;;12.10;99.90;;;;;;5051630;28;20291;-55
2024/02/10 02:22:45;;;;;;;19.20;8.43;;;12.10;99.90;;;;;;5051694;28;20206;-56
2024/02/10 02:25:11;;;;;;;9.33;7.70;;;12.00;99.90;;;;;;5052136;28;20216;-55
2024/02/10 02:27:38;;;;;;;8.97;7.60;;;11.80;99.90;;;;;;5052235;28;20198;-57
2024/02/10 02:30:06;;;;;;;8.27;7.20;;;11.60;99.90;;;;;;5051787;28;20225;-56
2024/02/10 02:32:34;;;;;;;10.60;8.10;;;11.50;99.90;;;;;;5052017;28;20618;-57
2024/02/10 02:35:01;;;;;;;9.37;7.13;;;11.50;99.90;;;;;;5051805;28;20724;-56
2024/02/10 02:37:32;;;;;;;8.00;7.10;;;11.50;99.90;;;;;;5051706;28;20206;-56
2024/02/10 02:40:00;;;;;;;7.50;6.57;;;11.40;99.90;;;;;;5051625;28;20286;-57
2024/02/10 02:42:28;;;;;;;7.47;6.50;;;11.40;99.90;;;;;;5051713;28;20209;-56
2024/02/10 02:44:55;;;;;;;8.00;6.87;;;11.30;99.90;;;;;;5051809;28;20296;-57
2024/02/10 02:47:22;;;;;;;7.93;6.70;;;11.20;99.90;;;;;;5051689;28;20207;-56
2024/02/10 02:49:50;;;;;;;7.33;6.63;;;11.10;99.90;;;;;;5051259;28;20233;-57
2024/02/10 02:52:16;;;;;;;7.33;6.33;;;11.00;99.90;;;;;;5051845;28;20214;-55
2024/02/10 02:54:43;;;;;;;8.13;6.83;;;10.90;99.90;;;;;;5051684;28;20222;-56
2024/02/10 02:57:12;;;;;;;7.80;6.27;;;10.90;99.90;;;;;;5051522;28;20584;-55
2024/02/10 02:59:39;;;;;;;6.60;6.00;;;10.80;99.90;;;;;;5051449;28;20221;-55
2024/02/10 03:02:06;;;;;;;7.07;6.37;;;10.70;99.90;;;;;;5051365;28;20275;-55
2024/02/10 03:04:33;;;;;;;8.53;6.80;;;10.70;99.90;;;;;;5051284;28;20208;-56
2024/02/10 03:07:00;;;;;;;7.57;6.80;;;10.70;99.90;;;;;;5051694;28;20220;-55
2024/02/10 03:09:27;;;;;;;7.10;6.40;;;10.80;99.90;;;;;;5051043;28;20312;-55
2024/02/10 03:11:54;;;;;;;7.30;6.30;;;10.80;99.90;;;;;;5051469;28;20209;-56
2024/02/10 03:14:22;;;;;;;7.00;6.20;;;10.90;99.90;;;;;;5051053;28;20698;-56
2024/02/10 03:16:48;;;;;;;6.83;6.13;;;10.80;99.90;;;;;;5051441;28;20251;-55
2024/02/10 03:19:15;;;;;;;6.73;6.03;;;10.70;99.90;;;;;;5051188;28;20232;-55
2024/02/10 03:21:42;;;;;;;7.77;6.53;;;10.60;99.90;;;;;;5051345;28;20283;-56
2024/02/10 03:24:08;;;;;;;7.67;6.90;;;10.60;99.90;;;;;;5051267;28;20228;-56
2024/02/10 03:26:36;;;;;;;8.20;6.63;;;10.60;99.90;;;;;;5052919;28;20251;-55
2024/02/10 03:29:05;;;;;;;9.47;7.70;;;10.60;99.90;;;;;;5053854;28;20313;-54
2024/02/10 03:31:33;;;;;;;10.40;7.80;;;10.60;99.90;;;;;;5047223;28;20616;-55
2024/02/10 03:34:00;;;;;;;11.50;8.57;;;10.60;99.90;;;;;;5055352;28;20226;-55
2024/02/10 03:36:27;;;;;;;12.83;9.10;;;10.60;99.90;;;;;;5055097;28;20206;-54
2024/02/10 03:38:54;;;;;;;13.70;8.80;;;10.60;99.90;;;;;;5054837;28;20261;-54
2024/02/10 03:41:21;;;;;;;10.50;8.50;;;10.50;99.90;;;;;;5054950;28;20205;-55
2024/02/10 03:43:47;;;;;;;12.00;8.53;;;10.50;99.90;;;;;;5055008;28;20228;-55
2024/02/10 03:46:14;;;;;;;15.73;10.53;;;10.60;99.90;;;;;;5054696;28;20202;-55
2024/02/10 03:48:44;;;;;;;11.90;9.50;;;10.60;99.90;;;;;;5055009;28;20249;-55
2024/02/10 03:51:12;;;;;;;14.40;10.17;;;10.60;99.90;;;;;;5055281;28;20214;-55
2024/02/10 03:53:39;;;;;;;13.10;10.03;;;10.70;99.90;;;;;;5054839;28;20679;-55
2024/02/10 03:56:09;;;;;;;14.37;10.90;;;10.70;99.90;;;;;;5054870;28;20202;-57
2024/02/10 03:58:40;;;;;;;14.27;10.77;;;10.70;99.90;;;;;;5054609;28;20236;-55
2024/02/10 04:01:08;;;;;;;12.53;9.73;;;10.60;99.90;;;;;;5054752;28;20214;-55
2024/02/10 04:03:35;;;;;;;15.87;10.87;;;10.60;99.90;;;;;;5055028;28;20201;-56
2024/02/10 04:06:04;;;;;;;18.23;10.73;;;10.60;99.90;;;;;;5054725;28;20480;-56
2024/02/10 04:08:32;;;;;;;15.20;11.23;;;10.60;99.90;;;;;;5054317;28;20226;-57
2024/02/10 04:11:00;;;;;;;15.63;11.10;;;10.60;99.90;;;;;;5054479;28;20209;-56
2024/02/10 04:13:28;;;;;;;14.30;10.87;;;10.60;99.90;;;;;;5054643;28;20706;-58
2024/02/10 04:15:56;;;;;;;17.37;11.57;;;10.60;99.90;;;;;;5054367;28;20762;-56
2024/02/10 04:18:25;;;;;;;15.70;11.70;;;10.70;99.90;;;;;;5054346;28;20240;-56
2024/02/10 04:20:51;;;;;;;15.90;11.20;;;10.70;99.90;;;;;;5054329;28;20301;-55
2024/02/10 04:23:19;;;;;;;16.67;11.83;;;10.70;99.90;;;;;;5054188;28;20582;-57
2024/02/10 04:25:46;;;;;;;17.77;13.13;;;10.70;99.90;;;;;;5054334;28;20671;-56
2024/02/10 04:28:12;;;;;;;17.17;12.27;;;10.60;99.90;;;;;;5054612;28;20201;-56
2024/02/10 04:30:40;;;;;;;15.40;11.53;;;10.60;99.90;;;;;;5054373;28;20674;-56
2024/02/10 04:33:06;;;;;;;16.37;11.90;;;10.70;99.90;;;;;;5054539;28;20209;-55
2024/02/10 04:35:33;;;;;;;14.70;11.90;;;10.70;99.90;;;;;;5054346;28;20226;-57
2024/02/10 04:38:01;;;;;;;15.97;11.90;;;10.70;99.90;;;;;;5054241;28;20256;-56
2024/02/10 04:40:30;;;;;;;15.33;11.00;;;10.80;99.90;;;;;;5053380;28;20233;-55
2024/02/10 04:42:56;;;;;;;15.67;11.60;;;10.90;99.90;;;;;;5054440;28;20339;-55
2024/02/10 04:45:25;;;;;;;15.40;12.13;;;11.00;99.90;;;;;;5054242;28;20212;-56
2024/02/10 04:47:52;;;;;;;19.03;15.73;;;11.20;99.90;;;;;;5054170;28;20237;-56
2024/02/10 04:50:19;;;;;;;16.93;12.50;;;11.10;99.90;;;;;;5053638;28;20329;-55
2024/02/10 04:52:46;;;;;;;16.33;12.30;;;11.10;99.90;;;;;;5053736;28;20217;-56
2024/02/10 04:55:15;;;;;;;14.43;12.00;;;11.10;99.90;;;;;;5054135;28;20303;-56
2024/02/10 04:57:43;;;;;;;17.00;12.53;;;11.20;99.90;;;;;;5053828;28;20530;-56
2024/02/10 05:00:15;;;;;;;15.70;12.40;;;11.20;99.90;;;;;;5053641;28;20272;-55
2024/02/10 05:02:46;;;;;;;16.47;13.13;;;11.20;99.90;;;;;;5053994;28;20300;-55
2024/02/10 05:05:13;;;;;;;15.67;12.70;;;11.30;99.90;;;;;;5053709;28;20209;-56
2024/02/10 05:07:45;;;;;;;16.97;13.03;;;11.40;99.90;;;;;;5053940;28;20216;-55
2024/02/10 05:10:14;;;;;;;16.07;12.67;;;11.40;99.90;;;;;;5053676;28;20263;-57
2024/02/10 05:12:44;;;;;;;16.27;12.67;;;11.40;99.90;;;;;;5053968;28;20202;-55
2024/02/10 05:15:14;;;;;;;17.57;12.73;;;11.30;99.90;;;;;;5053817;28;20225;-55
2024/02/10 05:17:42;;;;;;;15.47;11.83;;;11.20;99.90;;;;;;5053877;28;20651;-55
2024/02/10 05:20:13;;;;;;;17.23;13.13;;;11.10;99.90;;;;;;5053765;28;20312;-56
2024/02/10 05:22:42;;;;;;;16.70;13.43;;;11.00;99.90;;;;;;5053770;28;20213;-56
2024/02/10 05:25:11;;;;;;;17.30;13.20;;;10.90;99.90;;;;;;5053839;28;20646;-55
2024/02/10 05:27:39;;;;;;;17.13;13.43;;;10.90;99.90;;;;;;5053718;28;20292;-57
2024/02/10 05:30:18;;;;;;;16.83;13.03;;;10.80;99.90;;;;;;5053812;28;20320;-57
2024/02/10 05:32:45;;;;;;;20.00;15.23;;;10.70;99.90;;;;;;5053808;28;20305;-54
2024/02/10 05:35:18;;;;;;;21.03;15.50;;;10.70;99.90;;;;;;5053805;28;20316;-56
2024/02/10 05:37:45;;;;;;;21.53;15.23;;;10.70;99.90;;;;;;5053723;28;20296;-56
2024/02/10 05:40:13;;;;;;;18.23;14.57;;;10.80;99.90;;;;;;5052807;28;20236;-56
2024/02/10 05:42:39;;;;;;;22.37;15.87;;;10.80;99.90;;;;;;5053255;28;20205;-56
2024/02/10 05:45:09;;;;;;;24.90;16.13;;;10.90;99.90;;;;;;5053395;28;20214;-56
2024/02/10 05:47:36;;;;;;;20.43;15.67;;;10.90;99.90;;;;;;5052968;28;20206;-56
2024/02/10 05:50:05;;;;;;;22.30;15.23;;;10.90;99.90;;;;;;5052545;28;20233;-56
2024/02/10 05:52:34;;;;;;;19.33;15.27;;;11.10;99.90;;;;;;5052681;28;20280;-57
2024/02/10 05:55:01;;;;;;;19.40;14.93;;;11.10;99.90;;;;;;5052725;28;20222;-56
2024/02/10 05:57:28;;;;;;;16.97;13.17;;;11.10;99.90;;;;;;5052578;28;20256;-55
2024/02/10 05:59:54;;;;;;;16.90;12.23;;;11.00;99.90;;;;;;5052640;28;20226;-56
2024/02/10 06:02:23;;;;;;;19.20;13.77;;;11.00;99.90;;;;;;5052739;28;20206;-56
2024/02/10 06:04:50;;;;;;;21.80;15.43;;;11.00;99.90;;;;;;5052810;28;20201;-55
2024/02/10 06:07:18;;;;;;;19.30;14.50;;;11.10;99.90;;;;;;5052870;28;20248;-57
2024/02/10 06:09:45;;;;;;;20.40;14.67;;;11.00;99.90;;;;;;5052308;28;20272;-57
2024/02/10 06:12:11;;;;;;;21.83;14.23;;;11.00;99.90;;;;;;5052686;28;20217;-55
2024/02/10 06:14:39;;;;;;;18.27;12.73;;;11.10;99.90;;;;;;5052676;28;20233;-56
2024/02/10 06:17:06;;;;;;;13.83;11.33;;;10.90;99.90;;;;;;5052399;28;20232;-55
2024/02/10 06:19:35;;;;;;;16.80;12.67;;;10.80;99.90;;;;;;5052106;28;20238;-56
2024/02/10 06:22:02;;;;;;;15.07;12.33;;;10.90;99.90;;;;;;5052298;28;20205;-56
2024/02/10 06:24:33;;;;;;;18.67;14.00;;;10.90;99.90;;;;;;5052158;28;20216;-56
2024/02/10 06:27:00;;;;;;;19.00;14.27;;;11.00;99.90;;;;;;5052436;28;20202;-55
2024/02/10 06:29:27;;;;;;;17.77;13.43;;;11.00;99.90;;;;;;5052252;28;20256;-57
2024/02/10 06:31:57;;;;;;;19.93;13.90;;;11.00;99.90;;;;;;5052214;28;20213;-57
2024/02/10 06:34:25;;;;;;;15.87;12.03;;;11.00;99.90;;;;;;5052074;28;20221;-58
2024/02/10 06:36:54;;;;;;;14.50;11.43;;;11.00;99.90;;;;;;5052079;28;20225;-56
2024/02/10 06:39:21;;;;;;;14.47;10.97;;;11.10;99.90;;;;;;5052143;28;20221;-57
2024/02/10 06:41:50;;;;;;;13.33;10.87;;;11.00;99.90;;;;;;5052228;28;20208;-57
2024/02/10 06:44:17;;;;;;;10.80;8.80;;;11.00;99.90;;;;;;5051973;28;20214;-57
2024/02/10 06:46:43;;;;;;;10.37;8.90;;;10.90;99.90;;;;;;5051814;28;20201;-57
2024/02/10 06:49:11;;;;;;;9.10;7.50;;;10.70;99.90;;;;;;5051323;28;20230;-56
2024/02/10 06:51:38;;;;;;;11.33;8.67;;;10.70;99.90;;;;;;5051690;28;20818;-57
2024/02/10 06:54:06;;;;;;;11.13;8.00;;;10.70;99.90;;;;;;5052186;28;20213;-57
2024/02/10 06:56:33;;;;;;;11.70;8.60;;;10.80;99.90;;;;;;5051816;28;20291;-57
2024/02/10 06:59:02;;;;;;;9.13;7.97;;;10.90;99.90;;;;;;5051516;28;20229;-57
2024/02/10 07:01:29;;;;;;;10.93;9.30;;;10.90;99.90;;;;;;5051912;28;20215;-56
2024/02/10 07:03:57;;;;;;;8.93;7.90;;;11.00;99.90;;;;;;5051194;28;20224;-57
2024/02/10 07:06:27;;;;;;;9.97;7.90;;;11.00;99.90;;;;;;5051907;28;20236;-56
2024/02/10 07:08:54;;;;;;;12.13;9.03;;;11.10;99.90;;;;;;5051534;28;20225;-58
2024/02/10 07:11:22;;;;;;;13.90;9.57;;;11.10;99.90;;;;;;5051939;28;20296;-56
2024/02/10 07:13:48;;;;;;;11.87;8.60;;;11.20;99.90;;;;;;5051516;28;20247;-56
2024/02/10 07:16:15;;;;;;;14.17;10.20;;;11.20;99.90;;;;;;5051648;28;20634;-57
2024/02/10 07:18:47;;;;;;;13.10;11.03;;;11.30;99.90;;;;;;5051264;28;20332;-55
2024/02/10 07:21:14;;;;;;;13.60;10.00;;;11.30;99.90;;;;;;5052054;28;20209;-57
2024/02/10 07:23:41;;;;;;;11.47;9.60;;;11.50;99.90;;;;;;5051672;28;20205;-57
2024/02/10 07:26:08;;;;;;;12.23;7.63;;;11.60;99.90;;;;;;5051617;28;20284;-56
2024/02/10 07:28:36;;;;;;;10.23;7.50;;;11.40;99.90;;;;;;5051203;28;20711;-58
2024/02/10 07:31:03;;;;;;;8.40;6.90;;;11.30;99.90;;;;;;5052023;28;20247;-55
2024/02/10 07:33:30;;;;;;;7.47;6.67;;;11.30;99.90;;;;;;5051562;28;20214;-55
2024/02/10 07:35:57;;;;;;;9.63;6.63;;;11.30;99.90;;;;;;5051463;28;20271;-54
2024/02/10 07:38:24;;;;;;;8.50;7.13;;;11.40;99.90;;;;;;5051255;28;20286;-59
2024/02/10 07:40:51;;;;;;;9.17;7.53;;;11.50;99.90;;;;;;5051418;28;20259;-57
2024/02/10 07:43:17;;;;;;;9.67;8.00;;;11.60;99.90;;;;;;5051256;28;20331;-55
2024/02/10 07:45:46;;;;;;;10.17;8.07;;;11.70;99.90;;;;;;5051139;28;20210;-55
2024/02/10 07:48:12;;;;;;;9.60;7.97;;;11.80;99.90;;;;;;5050679;28;20205;-56
2024/02/10 07:50:41;;;;;;;14.50;9.73;;;11.80;99.90;;;;;;5051713;28;20198;-58
2024/02/10 07:53:10;;;;;;;12.00;9.03;;;11.90;99.90;;;;;;5051428;28;20595;-58
2024/02/10 07:55:37;;;;;;;14.13;10.90;;;11.90;99.90;;;;;;5051302;28;20228;-58
2024/02/10 07:58:04;;;;;;;13.70;10.93;;;11.90;99.90;;;;;;5051108;28;20698;-57
2024/02/10 08:00:32;;;;;;;12.90;10.93;;;11.80;99.90;;;;;;5051002;28;20695;-54
2024/02/10 08:03:02;;;;;;;12.90;10.33;;;11.70;99.90;;;;;;5051247;28;20213;-57
2024/02/10 08:05:28;;;;;;;11.13;9.27;;;11.50;99.90;;;;;;5051268;28;20288;-56
2024/02/10 08:07:56;;;;;;;11.97;9.80;;;11.30;99.90;;;;;;5051112;28;20574;-55
2024/02/10 08:10:22;;;;;;;11.27;9.37;;;11.20;99.90;;;;;;5050862;28;20261;-55
2024/02/10 08:12:50;;;;;;;12.70;9.67;;;11.10;99.90;;;;;;5050924;28;20263;-58
2024/02/10 08:15:17;;;;;;;12.00;9.03;;;11.10;99.90;;;;;;5054108;28;20276;-57
2024/02/10 08:17:44;;;;;;;11.10;8.90;;;11.20;99.90;;;;;;5054814;28;20249;-56
2024/02/10 08:20:12;;;;;;;11.97;9.10;;;11.30;99.90;;;;;;5054652;28;20317;-56
2024/02/10 08:22:39;;;;;;;14.87;9.30;;;11.40;99.90;;;;;;5054660;28;20410;-55
2024/02/10 08:25:07;;;;;;;11.00;8.73;;;11.40;99.90;;;;;;5054503;28;20205;-55
2024/02/10 08:27:34;;;;;;;12.03;8.87;;;11.50;99.90;;;;;;5054732;28;20209;-56
2024/02/10 08:30:03;;;;;;;11.60;8.87;;;11.60;99.90;;;;;;5054524;28;20233;-55
2024/02/10 08:32:31;;;;;;;11.77;8.50;;;11.70;99.90;;;;;;5054613;28;20240;-56
2024/02/10 08:35:00;;;;;;;9.00;7.97;;;11.80;99.90;;;;;;5054813;28;20623;-55
2024/02/10 08:37:33;;;;;;;10.90;8.60;;;12.00;99.90;;;;;;5054455;28;20722;-56
2024/02/10 08:40:02;;;;;;;9.53;7.70;;;12.00;99.90;;;;;;5054254;28;20226;-56
2024/02/10 08:42:29;;;;;;;11.33;8.43;;;12.00;99.90;;;;;;5054413;28;20710;-57
2024/02/10 08:44:56;;;;;;;11.00;7.90;;;12.10;99.90;;;;;;5054289;28;20580;-56
2024/02/10 08:47:22;;;;;;;8.30;6.83;;;12.20;99.90;;;;;;5054038;28;20210;-55
2024/02/10 08:49:49;;;;;;;9.30;6.77;;;12.20;99.90;;;;;;5054495;28;20242;-56
2024/02/10 08:52:19;;;;;;;6.77;6.10;;;12.10;99.90;;;;;;5054298;28;20217;-57
2024/02/10 08:54:47;;;;;;;6.10;5.13;;;12.00;99.90;;;;;;5054220;28;20221;-56
2024/02/10 08:57:15;;;;;;;8.57;5.93;;;11.90;99.90;;;;;;5053800;28;20225;-57
2024/02/10 08:59:45;;;;;;;7.00;5.93;;;11.90;99.90;;;;;;5053896;28;20321;-56
2024/02/10 09:02:12;;;;;;;6.83;5.63;;;11.90;99.90;;;;;;5053736;28;20293;-57
2024/02/10 09:04:40;;;;;;;7.40;6.10;;;12.10;99.90;;;;;;5057604;28;20208;-55
2024/02/10 09:07:06;;;;;;;7.57;6.27;;;12.00;99.90;;;;;;5056373;28;20205;-57
2024/02/10 09:09:33;;;;;;;11.80;9.37;;;12.00;99.90;;;;;;5053410;28;20225;-60
2024/02/10 09:12:01;;;;;;;10.20;6.90;;;12.10;99.90;;;;;;5053475;28;20209;-61
2024/02/10 09:14:29;;;;;;;8.40;6.73;;;12.30;99.90;;;;;;5053438;28;20212;-60
2024/02/10 09:16:56;;;;;;;6.83;6.00;;;12.50;99.90;;;;;;5053457;28;20480;-61
2024/02/10 09:19:23;;;;;;;8.43;7.07;;;12.60;99.90;;;;;;5052945;28;20784;-61
2024/02/10 09:21:55;;;;;;;9.37;7.03;;;12.80;99.90;;;;;;5053148;28;20209;-60
2024/02/10 09:24:22;;;;;;;8.47;6.90;;;12.90;99.90;;;;;;5052966;28;20206;-61
2024/02/10 09:26:49;;;;;;;8.10;7.07;;;13.10;99.90;;;;;;5053024;28;20201;-60
2024/02/10 09:29:18;;;;;;;8.90;6.43;;;13.10;99.90;;;;;;5053088;28;20321;-61
2024/02/10 09:31:45;;;;;;;7.03;6.10;;;13.20;99.90;;;;;;5053199;28;20587;-61
2024/02/10 09:34:12;;;;;;;9.07;6.80;;;13.10;99.90;;;;;;5052994;28;20722;-61
2024/02/10 09:36:42;;;;;;;8.57;6.80;;;13.10;99.90;;;;;;5053156;28;20320;-60
2024/02/10 09:39:09;;;;;;;8.40;6.63;;;13.20;99.90;;;;;;5053023;28;20241;-59
2024/02/10 09:41:35;;;;;;;7.03;6.33;;;13.30;99.90;;;;;;5052934;28;20205;-61
2024/02/10 09:44:07;;;;;;;9.77;6.80;;;13.30;99.90;;;;;;5052648;28;20209;-61
2024/02/10 09:46:36;;;;;;;8.70;6.37;;;13.40;99.90;;;;;;5052628;28;20296;-61
2024/02/10 09:49:06;;;;;;;8.53;6.90;;;13.50;99.90;;;;;;5052665;28;20236;-61
2024/02/10 09:51:34;;;;;;;7.33;6.13;;;13.50;99.90;;;;;;5052767;28;20213;-60
2024/02/10 09:54:01;;;;;;;9.53;6.77;;;13.60;99.90;;;;;;5052488;28;20206;-60
2024/02/10 09:56:29;;;;;;;9.33;7.40;;;13.70;99.90;;;;;;5052566;28;20229;-61
2024/02/10 09:58:56;;;;;;;8.10;6.97;;;13.90;99.90;;;;;;5052248;28;20260;-60
2024/02/10 10:01:22;;;;;;;8.83;7.40;;;14.00;99.90;;;;;;5052476;28;20642;-61
2024/02/10 10:03:51;;;;;;;8.50;7.00;;;14.00;99.90;;;;;;5052459;28;20679;-60
2024/02/10 10:06:23;;;;;;;8.90;6.63;;;14.00;99.90;;;;;;5052561;28;20205;-60
2024/02/10 10:08:50;;;;;;;9.13;7.83;;;14.00;99.90;;;;;;5052112;28;20236;-61
2024/02/10 10:11:16;;;;;;;11.17;9.70;;;13.90;99.90;;;;;;5052371;28;20255;-61
2024/02/10 10:13:43;;;;;;;10.53;9.40;;;13.70;99.90;;;;;;5052775;28;20205;-61
2024/02/10 10:16:10;;;;;;;10.20;8.47;;;13.70;99.90;;;;;;5052454;28;20225;-60
2024/02/10 10:18:37;;;;;;;11.80;9.77;;;13.80;99.90;;;;;;5052118;28;20240;-60
2024/02/10 10:21:06;;;;;;;14.17;10.37;;;13.80;99.90;;;;;;5052344;28;20228;-60
2024/02/10 10:23:34;;;;;;;14.13;10.73;;;13.80;99.90;;;;;;5052410;28;20274;-61
2024/02/10 10:26:01;;;;;;;13.60;11.03;;;13.70;99.90;;;;;;5052330;28;20205;-61
2024/02/10 10:28:27;;;;;;;14.13;10.47;;;13.40;99.90;;;;;;5052186;28;20237;-60
2024/02/10 10:30:58;;;;;;;14.90;9.73;;;13.30;99.90;;;;;;5052544;28;20204;-62
2024/02/10 10:33:26;;;;;;;10.47;9.37;;;13.30;99.90;;;;;;5052436;28;20205;-59
2024/02/10 10:35:54;;;;;;;11.20;9.33;;;13.30;99.90;;;;;;5052135;28;20757;-59
2024/02/10 10:38:23;;;;;;;13.33;10.63;;;13.30;99.90;;;;;;5050974;28;20205;-59
2024/02/10 10:40:52;;;;;;;14.33;12.27;;;13.20;99.90;;;;;;5049880;28;20209;-62
2024/02/10 10:43:21;;;;;;;13.93;11.87;;;13.30;99.90;;;;;;5052234;28;20233;-64
2024/02/10 10:45:47;;;;;;;14.47;11.90;;;13.30;99.90;;;;;;5051969;28;20205;-65
2024/02/10 10:48:15;;;;;;;13.77;12.10;;;13.50;99.90;;;;;;5050974;28;20205;-62
2024/02/10 10:50:42;;;;;;;13.27;10.63;;;13.60;99.90;;;;;;5052169;28;20686;-62
2024/02/10 10:53:10;;;;;;;12.13;9.97;;;13.70;99.90;;;;;;5051357;28;20208;-64
2024/02/10 10:55:43;;;;;;;10.97;9.00;;;13.90;99.90;;;;;;5051893;28;20292;-63
2024/02/10 10:58:14;;;;;;;7.03;6.33;;;14.00;99.90;;;;;;5051803;28;20264;-66
2024/02/10 11:00:43;;;;;;;7.47;6.03;;;14.10;99.90;;;;;;5051574;28;20706;-62
2024/02/10 11:03:10;;;;;;;7.20;5.60;;;14.00;99.90;;;;;;5051730;28;20263;-63
2024/02/10 11:05:41;;;;;;;7.77;6.63;;;14.10;99.90;;;;;;5051796;28;20239;-64
2024/02/10 11:08:13;;;;;;;9.10;6.20;;;14.10;99.90;;;;;;5052004;28;20206;-65
2024/02/10 11:10:44;;;;;;;10.27;6.00;;;13.80;99.90;;;;;;5051907;28;20213;-63
2024/02/10 11:13:21;;;;;;;6.30;5.70;;;13.50;99.90;;;;;;5051364;28;20213;-65
2024/02/10 11:15:47;;;;;;;6.30;5.47;;;13.50;99.90;;;;;;5051707;28;20655;-57
2024/02/10 11:18:17;;;;;;;7.33;5.87;;;13.50;99.90;;;;;;5051290;28;20221;-64
2024/02/10 11:20:44;;;;;;;7.83;5.97;;;13.50;99.90;;;;;;5051582;28;20209;-65
2024/02/10 11:23:13;;;;;;;6.73;5.47;;;13.40;99.90;;;;;;5051551;28;20247;-66
2024/02/10 11:25:42;;;;;;;6.97;5.80;;;13.40;99.90;;;;;;5051447;28;20209;-65
2024/02/10 11:28:20;;;;;;;11.07;6.43;;;13.40;99.90;;;;;;5051488;28;20201;-65
2024/02/10 11:30:47;;;;;;;9.03;6.03;;;13.50;99.90;;;;;;5051630;28;20232;-65
2024/02/10 11:33:17;;;;;;;7.70;6.30;;;13.60;99.90;;;;;;5051670;28;20209;-67
2024/02/10 11:35:46;;;;;;;7.10;5.63;;;13.50;99.90;;;;;;5051357;28;20209;-65
2024/02/10 11:38:14;;;;;;;6.20;5.10;;;13.40;99.90;;;;;;5051732;28;20445;-65
2024/02/10 11:40:42;;;;;;;7.03;5.40;;;13.30;99.90;;;;;;5051513;28;20630;-64
2024/02/10 11:43:10;;;;;;;7.87;5.33;;;13.20;99.90;;;;;;5051466;28;20671;-65
2024/02/10 11:45:37;;;;;;;6.03;5.43;;;13.20;99.90;;;;;;5051897;28;20301;-67
2024/02/10 11:48:08;;;;;;;7.60;5.70;;;13.20;99.90;;;;;;5051638;28;20584;-63
2024/02/10 11:50:42;;;;;;;7.57;5.90;;;13.30;99.90;;;;;;5054426;28;20211;-62
2024/02/10 11:53:11;;;;;;;8.00;5.40;;;13.20;99.90;;;;;;5055619;28;20687;-63
2024/02/10 11:55:41;;;;;;;7.07;5.60;;;13.30;99.90;;;;;;5054822;28;20210;-64
2024/02/10 11:58:11;;;;;;;7.17;5.57;;;13.50;99.90;;;;;;5055455;28;20721;-65
2024/02/10 12:00:38;;;;;;;5.80;5.20;;;13.60;99.90;;;;;;5055171;28;20205;-64
2024/02/10 12:03:05;;;;;;;18.67;5.80;;;13.60;99.90;;;;;;5054886;28;20217;-63
2024/02/10 12:05:34;;;;;;;9.03;5.87;;;13.70;99.90;;;;;;5054837;28;20201;-60
2024/02/10 12:08:02;;;;;;;6.93;6.23;;;13.80;99.90;;;;;;5053868;28;20728;-66
2024/02/10 12:10:29;;;;;;;9.37;6.10;;;14.10;99.90;;;;;;5052718;28;20785;-67
2024/02/10 12:12:55;;;;;;;8.50;5.87;;;14.30;99.90;;;;;;5046752;28;20216;-63
2024/02/10 12:15:26;;;;;;;6.63;5.40;;;14.60;99.90;;;;;;5051363;28;20216;-62
2024/02/10 12:17:55;;;;;;;6.87;4.87;;;14.70;99.90;;;;;;5053787;28;20237;-63
2024/02/10 12:20:23;;;;;;;7.13;5.27;;;14.90;99.90;;;;;;5054145;28;20230;-63
2024/02/10 12:22:51;;;;;;;7.80;5.67;;;15.10;99.90;;;;;;5054242;28;20218;-60
2024/02/10 12:25:19;;;;;;;7.43;4.87;;;15.30;99.90;;;;;;5054656;28;20205;-62
2024/02/10 12:27:46;;;;;;;7.03;5.00;;;15.50;99.90;;;;;;5054246;28;20209;-62
2024/02/10 12:30:13;;;;;;;6.30;5.10;;;15.60;99.90;;;;;;5054046;28;20229;-62
2024/02/10 12:32:42;;;;;;;6.57;5.03;;;15.70;99.90;;;;;;5054064;28;20569;-60
2024/02/10 12:35:14;;;;;;;7.68;5.55;;;15.80;99.90;;;;;;5051938;28;20210;-61
2024/02/10 12:37:43;;;;;;;7.03;5.32;;;16.00;99.90;;;;;;5054039;28;20229;-64
2024/02/10 12:40:11;;;;;;;7.93;5.57;;;16.00;99.90;;;;;;5053865;28;20252;-64
2024/02/10 12:42:42;;;;;;;6.80;5.20;;;16.00;99.90;;;;;;5052271;28;20205;-65